sensor_id;sensor_type;location;lat;lon;timestamp;pressure;altitude;pressure_sealevel;temperature;humidity
69247;BME280;56358;56.328;43.992;2022-09-30T00:00:49;100846.59;;;7.76;91.09
69247;BME280;56358;56.328;43.992;2022-09-30T00:02:50;100831.69;;;7.71;91.09
69247;BME280;56358;56.328;43.992;2022-09-30T00:04:51;100831.03;;;7.68;90.76
69247;BME280;56358;56.328;43.992;2022-09-30T00:06:53;100792.88;;;7.51;90.32
69247;BME280;56358;56.328;43.992;2022-09-30T00:08:54;100845.66;;;7.91;90.35
69247;BME280;56358;56.328;43.992;2022-09-30T00:11:10;100855.00;;;7.98;90.40
69247;BME280;56358;56.328;43.992;2022-09-30T00:13:21;100867.03;;;8.05;89.82
69247;BME280;56358;56.328;43.992;2022-09-30T00:15:21;100852.34;;;7.98;89.45
69247;BME280;56358;56.328;43.992;2022-09-30T00:17:22;100877.91;;;8.17;89.55
69247;BME280;56358;56.328;43.992;2022-09-30T00:19:23;100876.84;;;8.19;89.13
69247;BME280;56358;56.328;43.992;2022-09-30T00:21:24;100878.31;;;8.25;89.25
69247;BME280;56358;56.328;43.992;2022-09-30T00:23:25;100878.09;;;8.28;88.72
69247;BME280;56358;56.328;43.992;2022-09-30T00:25:26;100842.22;;;8.18;88.46
69247;BME280;56358;56.328;43.992;2022-09-30T00:27:27;100761.44;;;7.71;88.31
69247;BME280;56358;56.328;43.992;2022-09-30T00:29:27;100835.63;;;8.23;87.88
69247;BME280;56358;56.328;43.992;2022-09-30T00:31:31;100865.91;;;8.38;87.83
69247;BME280;56358;56.328;43.992;2022-09-30T00:33:33;100761.09;;;7.77;87.57
69247;BME280;56358;56.328;43.992;2022-09-30T00:35:36;100840.91;;;8.25;87.29
69247;BME280;56358;56.328;43.992;2022-09-30T00:37:37;100868.47;;;8.40;87.46
69247;BME280;56358;56.328;43.992;2022-09-30T00:39:38;100869.22;;;8.42;87.45
69247;BME280;56358;56.328;43.992;2022-09-30T00:41:38;100876.00;;;8.48;87.28
69247;BME280;56358;56.328;43.992;2022-09-30T00:43:43;100901.69;;;8.50;87.54
69247;BME280;56358;56.328;43.992;2022-09-30T00:45:53;100889.94;;;8.53;87.40
69247;BME280;56358;56.328;43.992;2022-09-30T00:48:06;100879.38;;;8.51;87.13
69247;BME280;56358;56.328;43.992;2022-09-30T00:52:17;100887.84;;;8.58;86.88
69247;BME280;56358;56.328;43.992;2022-09-30T00:54:22;100821.44;;;8.23;86.71
69247;BME280;56358;56.328;43.992;2022-09-30T00:56:28;100781.69;;;8.04;86.63
69247;BME280;56358;56.328;43.992;2022-09-30T00:58:37;100889.09;;;8.67;86.65
69247;BME280;56358;56.328;43.992;2022-09-30T01:00:39;100888.69;;;8.73;86.50
69247;BME280;56358;56.328;43.992;2022-09-30T01:02:40;100875.72;;;8.67;86.34
69247;BME280;56358;56.328;43.992;2022-09-30T01:04:42;100884.97;;;8.76;85.95
69247;BME280;56358;56.328;43.992;2022-09-30T01:06:43;100890.03;;;8.80;85.79
69247;BME280;56358;56.328;43.992;2022-09-30T01:08:44;100880.56;;;8.75;85.99
69247;BME280;56358;56.328;43.992;2022-09-30T01:10:46;100898.78;;;8.82;85.32
69247;BME280;56358;56.328;43.992;2022-09-30T01:12:46;100885.75;;;8.78;85.44
69247;BME280;56358;56.328;43.992;2022-09-30T01:14:49;100847.97;;;8.55;85.21
69247;BME280;56358;56.328;43.992;2022-09-30T01:17:07;100893.19;;;8.87;85.26
69247;BME280;56358;56.328;43.992;2022-09-30T01:28:45;100902.84;;;8.75;84.89
69247;BME280;56358;56.328;43.992;2022-09-30T01:38:20;100904.25;;;8.66;85.35
69247;BME280;56358;56.328;43.992;2022-09-30T01:40:36;100894.63;;;8.64;85.31
69247;BME280;56358;56.328;43.992;2022-09-30T01:45:39;100894.06;;;8.59;85.62
69247;BME280;56358;56.328;43.992;2022-09-30T01:47:50;100886.44;;;8.52;85.32
69247;BME280;56358;56.328;43.992;2022-09-30T01:49:59;100929.00;;;8.70;85.36
69247;BME280;56358;56.328;43.992;2022-09-30T01:52:06;100825.34;;;8.17;85.31
69247;BME280;56358;56.328;43.992;2022-09-30T01:56:52;100870.47;;;8.36;85.08
69247;BME280;56358;56.328;43.992;2022-09-30T02:01:40;100910.59;;;8.65;85.18
69247;BME280;56358;56.328;43.992;2022-09-30T02:03:47;100863.97;;;8.41;85.38
69247;BME280;56358;56.328;43.992;2022-09-30T02:06:05;100760.59;;;7.70;85.14
69247;BME280;56358;56.328;43.992;2022-09-30T02:08:25;100878.78;;;8.46;85.20
69247;BME280;56358;56.328;43.992;2022-09-30T02:10:34;100919.81;;;8.60;85.27
69247;BME280;56358;56.328;43.992;2022-09-30T02:12:43;100887.06;;;8.42;85.30
69247;BME280;56358;56.328;43.992;2022-09-30T02:15:02;100915.81;;;8.52;84.82
69247;BME280;56358;56.328;43.992;2022-09-30T02:17:08;100919.25;;;8.54;84.91
69247;BME280;56358;56.328;43.992;2022-09-30T02:19:19;100932.06;;;8.49;84.79
69247;BME280;56358;56.328;43.992;2022-09-30T02:21:28;100921.53;;;8.46;85.17
69247;BME280;56358;56.328;43.992;2022-09-30T02:23:33;100917.94;;;8.47;85.42
69247;BME280;56358;56.328;43.992;2022-09-30T02:25:47;100914.84;;;8.39;85.24
69247;BME280;56358;56.328;43.992;2022-09-30T02:27:54;100907.19;;;8.33;85.05
69247;BME280;56358;56.328;43.992;2022-09-30T02:29:58;100945.50;;;8.48;84.84
69247;BME280;56358;56.328;43.992;2022-09-30T02:32:06;100941.03;;;8.48;84.93
69247;BME280;56358;56.328;43.992;2022-09-30T02:34:40;100944.38;;;8.52;85.22
69247;BME280;56358;56.328;43.992;2022-09-30T02:37:47;100945.91;;;8.56;84.63
69247;BME280;56358;56.328;43.992;2022-09-30T02:39:24;100916.66;;;8.38;84.84
69247;BME280;56358;56.328;43.992;2022-09-30T02:41:29;100946.16;;;8.51;84.83
69247;BME280;56358;56.328;43.992;2022-09-30T02:43:33;100932.41;;;8.43;84.96
69247;BME280;56358;56.328;43.992;2022-09-30T02:45:55;100953.25;;;8.52;84.74
69247;BME280;56358;56.328;43.992;2022-09-30T02:48:13;100949.88;;;8.49;84.68
69247;BME280;56358;56.328;43.992;2022-09-30T02:52:39;100951.31;;;8.54;84.60
69247;BME280;56358;56.328;43.992;2022-09-30T02:57:17;100950.56;;;8.52;84.41
69247;BME280;56358;56.328;43.992;2022-09-30T02:59:21;100847.63;;;7.87;84.13
69247;BME280;56358;56.328;43.992;2022-09-30T03:01:23;100966.53;;;8.38;84.65
69247;BME280;56358;56.328;43.992;2022-09-30T03:03:31;100929.06;;;8.25;84.34
69247;BME280;56358;56.328;43.992;2022-09-30T03:05:33;100947.47;;;8.30;84.50
69247;BME280;56358;56.328;43.992;2022-09-30T03:07:34;100916.13;;;8.03;84.70
69247;BME280;56358;56.328;43.992;2022-09-30T03:09:35;100927.59;;;8.05;85.03
69247;BME280;56358;56.328;43.992;2022-09-30T03:11:36;100934.34;;;7.96;85.39
69247;BME280;56358;56.328;43.992;2022-09-30T03:15:59;100949.41;;;7.97;85.79
69247;BME280;56358;56.328;43.992;2022-09-30T03:18:14;100947.97;;;7.92;86.10
69247;BME280;56358;56.328;43.992;2022-09-30T03:20:33;100941.75;;;7.91;86.00
69247;BME280;56358;56.328;43.992;2022-09-30T03:27:13;100920.09;;;7.81;86.08
69247;BME280;56358;56.328;43.992;2022-09-30T03:36:50;100933.06;;;7.87;85.95
69247;BME280;56358;56.328;43.992;2022-09-30T03:39:02;100943.69;;;8.03;85.64
69247;BME280;56358;56.328;43.992;2022-09-30T03:43:18;100960.28;;;8.09;85.57
69247;BME280;56358;56.328;43.992;2022-09-30T03:45:33;100953.41;;;8.04;85.39
69247;BME280;56358;56.328;43.992;2022-09-30T03:47:40;100952.56;;;8.04;85.16
69247;BME280;56358;56.328;43.992;2022-09-30T03:49:50;100950.16;;;7.99;85.15
69247;BME280;56358;56.328;43.992;2022-09-30T03:51:52;100956.47;;;8.13;85.37
69247;BME280;56358;56.328;43.992;2022-09-30T03:53:54;100964.34;;;8.16;84.92
69247;BME280;56358;56.328;43.992;2022-09-30T03:55:55;100955.63;;;8.12;84.92
69247;BME280;56358;56.328;43.992;2022-09-30T03:57:56;100974.72;;;8.20;84.73
69247;BME280;56358;56.328;43.992;2022-09-30T03:59:58;100980.91;;;8.21;84.95
69247;BME280;56358;56.328;43.992;2022-09-30T04:01:59;100947.69;;;7.96;84.56
69247;BME280;56358;56.328;43.992;2022-09-30T04:04:00;100943.53;;;8.07;84.67
69247;BME280;56358;56.328;43.992;2022-09-30T04:06:00;100971.31;;;8.18;84.72
69247;BME280;56358;56.328;43.992;2022-09-30T04:08:02;100966.31;;;8.12;84.44
69247;BME280;56358;56.328;43.992;2022-09-30T04:10:04;100900.81;;;7.76;84.38
69247;BME280;56358;56.328;43.992;2022-09-30T04:12:06;100913.31;;;7.90;84.62
69247;BME280;56358;56.328;43.992;2022-09-30T04:14:07;100969.75;;;8.14;84.56
69247;BME280;56358;56.328;43.992;2022-09-30T04:16:08;100961.66;;;8.16;84.23
69247;BME280;56358;56.328;43.992;2022-09-30T04:18:09;100966.03;;;8.17;84.55
69247;BME280;56358;56.328;43.992;2022-09-30T04:20:09;100955.84;;;8.09;84.50
69247;BME280;56358;56.328;43.992;2022-09-30T04:22:12;100959.06;;;8.14;84.12
69247;BME280;56358;56.328;43.992;2022-09-30T04:24:12;100861.53;;;7.64;84.33
69247;BME280;56358;56.328;43.992;2022-09-30T04:26:14;100950.09;;;8.15;84.46
69247;BME280;56358;56.328;43.992;2022-09-30T04:28:15;100936.34;;;8.07;84.41
69247;BME280;56358;56.328;43.992;2022-09-30T04:30:16;100970.91;;;8.25;84.32
69247;BME280;56358;56.328;43.992;2022-09-30T04:32:18;100969.97;;;8.26;84.32
69247;BME280;56358;56.328;43.992;2022-09-30T04:34:21;100930.94;;;8.23;84.38
69247;BME280;56358;56.328;43.992;2022-09-30T04:36:22;100972.16;;;8.49;84.41
69247;BME280;56358;56.328;43.992;2022-09-30T04:38:23;100867.56;;;7.82;83.97
69247;BME280;56358;56.328;43.992;2022-09-30T04:40:24;100983.69;;;8.50;84.46
69247;BME280;56358;56.328;43.992;2022-09-30T04:42:25;100971.09;;;8.52;84.66
69247;BME280;56358;56.328;43.992;2022-09-30T04:44:26;100944.50;;;8.34;84.69
69247;BME280;56358;56.328;43.992;2022-09-30T04:46:26;100964.19;;;8.48;84.72
69247;BME280;56358;56.328;43.992;2022-09-30T04:48:27;100969.47;;;8.49;85.08
69247;BME280;56358;56.328;43.992;2022-09-30T04:50:29;100977.09;;;8.55;85.17
69247;BME280;56358;56.328;43.992;2022-09-30T04:52:30;100972.69;;;8.54;85.09
69247;BME280;56358;56.328;43.992;2022-09-30T04:54:31;100994.28;;;8.51;84.82
69247;BME280;56358;56.328;43.992;2022-09-30T04:56:32;100974.53;;;8.54;84.83
69247;BME280;56358;56.328;43.992;2022-09-30T04:58:33;100904.22;;;8.09;85.09
69247;BME280;56358;56.328;43.992;2022-09-30T05:00:34;101008.97;;;8.73;84.90
69247;BME280;56358;56.328;43.992;2022-09-30T05:02:34;100987.03;;;8.68;84.23
69247;BME280;56358;56.328;43.992;2022-09-30T05:04:35;101016.34;;;8.98;84.42
69247;BME280;56358;56.328;43.992;2022-09-30T05:06:36;101044.25;;;9.09;83.85
69247;BME280;56358;56.328;43.992;2022-09-30T05:08:39;101037.63;;;9.14;83.49
69247;BME280;56358;56.328;43.992;2022-09-30T05:10:42;101037.44;;;9.17;83.39
69247;BME280;56358;56.328;43.992;2022-09-30T05:12:42;101036.09;;;9.25;83.48
69247;BME280;56358;56.328;43.992;2022-09-30T05:14:44;101034.75;;;9.17;82.72
69247;BME280;56358;56.328;43.992;2022-09-30T05:16:45;101013.66;;;8.98;82.42
69247;BME280;56358;56.328;43.992;2022-09-30T05:18:46;101018.25;;;9.11;82.26
69247;BME280;56358;56.328;43.992;2022-09-30T05:20:50;101031.50;;;9.27;82.14
69247;BME280;56358;56.328;43.992;2022-09-30T05:22:55;100943.41;;;8.67;81.47
69247;BME280;56358;56.328;43.992;2022-09-30T05:24:55;101003.75;;;9.00;81.49
69247;BME280;56358;56.328;43.992;2022-09-30T05:26:57;101025.78;;;9.04;81.97
69247;BME280;56358;56.328;43.992;2022-09-30T05:28:57;101033.06;;;9.16;81.74
69247;BME280;56358;56.328;43.992;2022-09-30T05:31:01;101021.50;;;9.01;82.26
69247;BME280;56358;56.328;43.992;2022-09-30T05:33:02;100961.44;;;8.64;82.45
69247;BME280;56358;56.328;43.992;2022-09-30T05:35:03;101037.63;;;9.00;83.00
69247;BME280;56358;56.328;43.992;2022-09-30T05:37:04;101023.69;;;9.09;82.93
69247;BME280;56358;56.328;43.992;2022-09-30T05:39:05;101043.56;;;9.19;82.82
69247;BME280;56358;56.328;43.992;2022-09-30T05:41:07;100946.66;;;8.58;82.39
69247;BME280;56358;56.328;43.992;2022-09-30T05:43:10;101045.84;;;9.26;82.77
69247;BME280;56358;56.328;43.992;2022-09-30T05:45:11;101049.19;;;9.29;82.60
69247;BME280;56358;56.328;43.992;2022-09-30T05:47:12;101033.06;;;9.16;82.29
69247;BME280;56358;56.328;43.992;2022-09-30T05:49:13;101053.38;;;9.33;82.54
69247;BME280;56358;56.328;43.992;2022-09-30T05:51:13;100943.72;;;8.63;82.20
69247;BME280;56358;56.328;43.992;2022-09-30T05:53:14;101071.94;;;9.36;82.03
69247;BME280;56358;56.328;43.992;2022-09-30T05:55:16;101011.78;;;9.00;82.05
69247;BME280;56358;56.328;43.992;2022-09-30T05:57:17;101068.28;;;9.37;82.29
69247;BME280;56358;56.328;43.992;2022-09-30T05:59:17;101046.72;;;9.26;82.15
69247;BME280;56358;56.328;43.992;2022-09-30T06:01:19;101045.09;;;9.23;81.85
69247;BME280;56358;56.328;43.992;2022-09-30T06:03:19;101067.31;;;9.38;81.85
69247;BME280;56358;56.328;43.992;2022-09-30T06:05:20;100971.09;;;8.81;82.07
69247;BME280;56358;56.328;43.992;2022-09-30T06:07:21;101077.44;;;9.48;82.15
69247;BME280;56358;56.328;43.992;2022-09-30T06:09:22;101071.63;;;9.55;81.69
69247;BME280;56358;56.328;43.992;2022-09-30T06:11:22;101068.44;;;9.63;81.25
69247;BME280;56358;56.328;43.992;2022-09-30T06:13:25;101064.50;;;9.69;81.01
69247;BME280;56358;56.328;43.992;2022-09-30T06:15:26;101070.78;;;9.82;81.26
69247;BME280;56358;56.328;43.992;2022-09-30T06:17:27;101076.59;;;9.89;79.96
69247;BME280;56358;56.328;43.992;2022-09-30T06:19:27;101073.59;;;9.94;79.74
69247;BME280;56358;56.328;43.992;2022-09-30T06:21:29;100992.38;;;9.53;79.51
69247;BME280;56358;56.328;43.992;2022-09-30T06:23:31;101064.22;;;10.01;79.27
69247;BME280;56358;56.328;43.992;2022-09-30T06:25:34;101064.59;;;9.95;78.96
69247;BME280;56358;56.328;43.992;2022-09-30T06:27:35;101058.50;;;9.93;79.16
69247;BME280;56358;56.328;43.992;2022-09-30T06:29:39;101077.19;;;10.07;79.35
69247;BME280;56358;56.328;43.992;2022-09-30T06:31:39;101080.13;;;10.17;79.33
69247;BME280;56358;56.328;43.992;2022-09-30T06:33:40;101069.09;;;10.21;79.06
69247;BME280;56358;56.328;43.992;2022-09-30T06:35:42;101061.91;;;10.22;78.95
69247;BME280;56358;56.328;43.992;2022-09-30T06:37:43;100914.91;;;9.37;78.19
69247;BME280;56358;56.328;43.992;2022-09-30T06:39:44;101074.00;;;10.42;78.32
69247;BME280;56358;56.328;43.992;2022-09-30T06:41:45;101072.41;;;10.52;78.15
69247;BME280;56358;56.328;43.992;2022-09-30T06:43:46;101048.06;;;10.43;77.94
69247;BME280;56358;56.328;43.992;2022-09-30T06:45:48;101081.22;;;10.54;78.36
69247;BME280;56358;56.328;43.992;2022-09-30T06:47:54;101074.91;;;10.55;77.68
69247;BME280;56358;56.328;43.992;2022-09-30T06:49:55;101082.19;;;10.53;78.45
69247;BME280;56358;56.328;43.992;2022-09-30T06:51:58;101079.94;;;10.60;77.92
69247;BME280;56358;56.328;43.992;2022-09-30T06:54:00;101080.91;;;10.72;78.06
69247;BME280;56358;56.328;43.992;2022-09-30T06:56:01;101079.75;;;10.76;77.54
69247;BME280;56358;56.328;43.992;2022-09-30T06:58:01;101074.16;;;10.79;77.34
69247;BME280;56358;56.328;43.992;2022-09-30T07:00:02;101092.41;;;11.00;76.90
69247;BME280;56358;56.328;43.992;2022-09-30T07:02:05;101076.41;;;10.98;76.69
69247;BME280;56358;56.328;43.992;2022-09-30T07:04:05;101023.84;;;10.83;76.25
69247;BME280;56358;56.328;43.992;2022-09-30T07:06:11;101053.56;;;10.93;76.27
69247;BME280;56358;56.328;43.992;2022-09-30T07:08:12;101073.38;;;11.29;76.04
69247;BME280;56358;56.328;43.992;2022-09-30T07:10:12;101075.59;;;11.48;75.38
69247;BME280;56358;56.328;43.992;2022-09-30T07:12:13;101087.81;;;11.65;75.39
69247;BME280;56358;56.328;43.992;2022-09-30T07:14:14;101011.22;;;11.35;74.81
69247;BME280;56358;56.328;43.992;2022-09-30T07:16:17;101097.81;;;12.00;74.98
69247;BME280;56358;56.328;43.992;2022-09-30T07:18:18;101000.13;;;11.64;74.33
69247;BME280;56358;56.328;43.992;2022-09-30T07:20:19;101079.59;;;12.16;73.29
69247;BME280;56358;56.328;43.992;2022-09-30T07:22:20;101088.31;;;12.31;73.44
69247;BME280;56358;56.328;43.992;2022-09-30T07:24:28;101075.91;;;12.17;72.71
69247;BME280;56358;56.328;43.992;2022-09-30T07:26:29;101067.63;;;12.20;73.39
69247;BME280;56358;56.328;43.992;2022-09-30T07:28:35;101079.00;;;12.24;73.20
69247;BME280;56358;56.328;43.992;2022-09-30T07:30:35;101064.53;;;12.14;73.40
69247;BME280;56358;56.328;43.992;2022-09-30T07:32:37;101050.19;;;12.02;73.90
69247;BME280;56358;56.328;43.992;2022-09-30T07:34:38;101055.06;;;11.97;74.49
69247;BME280;56358;56.328;43.992;2022-09-30T07:36:42;101069.53;;;12.07;74.65
69247;BME280;56358;56.328;43.992;2022-09-30T07:38:44;101042.63;;;11.83;74.85
69247;BME280;56358;56.328;43.992;2022-09-30T07:41:03;101068.50;;;11.97;74.90
69247;BME280;56358;56.328;43.992;2022-09-30T07:43:06;101068.50;;;11.97;74.60
69247;BME280;56358;56.328;43.992;2022-09-30T07:45:07;101069.34;;;11.97;74.79
69247;BME280;56358;56.328;43.992;2022-09-30T07:47:09;101067.44;;;12.11;74.81
69247;BME280;56358;56.328;43.992;2022-09-30T07:49:16;101076.81;;;12.29;74.70
69247;BME280;56358;56.328;43.992;2022-09-30T07:51:30;101054.91;;;12.22;74.49
69247;BME280;56358;56.328;43.992;2022-09-30T07:53:31;101082.28;;;12.52;73.81
69247;BME280;56358;56.328;43.992;2022-09-30T07:55:33;101007.03;;;12.28;73.98
69247;BME280;56358;56.328;43.992;2022-09-30T07:57:33;101073.75;;;12.69;73.51
69247;BME280;56358;56.328;43.992;2022-09-30T07:59:38;101000.31;;;12.22;73.33
69247;BME280;56358;56.328;43.992;2022-09-30T08:01:39;101082.97;;;12.78;72.92
69247;BME280;56358;56.328;43.992;2022-09-30T08:03:42;101072.44;;;12.86;72.91
69247;BME280;56358;56.328;43.992;2022-09-30T08:05:46;101082.25;;;12.87;73.32
69247;BME280;56358;56.328;43.992;2022-09-30T08:07:47;101081.69;;;12.71;73.38
69247;BME280;56358;56.328;43.992;2022-09-30T08:09:48;100973.16;;;12.14;72.90
69247;BME280;56358;56.328;43.992;2022-09-30T08:11:50;100996.47;;;12.13;73.69
69247;BME280;56358;56.328;43.992;2022-09-30T08:13:52;101073.47;;;12.50;74.21
69247;BME280;56358;56.328;43.992;2022-09-30T08:15:53;101080.34;;;12.54;74.22
69247;BME280;56358;56.328;43.992;2022-09-30T08:17:54;100995.81;;;11.98;74.47
69247;BME280;56358;56.328;43.992;2022-09-30T08:19:54;101046.94;;;12.45;74.85
69247;BME280;56358;56.328;43.992;2022-09-30T08:21:55;101068.00;;;12.63;74.72
69247;BME280;56358;56.328;43.992;2022-09-30T08:23:56;101070.31;;;12.56;74.66
69247;BME280;56358;56.328;43.992;2022-09-30T08:28:02;101059.41;;;12.57;75.13
69247;BME280;56358;56.328;43.992;2022-09-30T08:30:03;101085.06;;;12.97;73.97
69247;BME280;56358;56.328;43.992;2022-09-30T08:32:04;101077.72;;;12.99;73.72
69247;BME280;56358;56.328;43.992;2022-09-30T08:34:05;101067.97;;;13.21;72.89
69247;BME280;56358;56.328;43.992;2022-09-30T08:36:11;101064.16;;;13.35;72.01
69247;BME280;56358;56.328;43.992;2022-09-30T08:38:12;101038.00;;;13.37;71.25
69247;BME280;56358;56.328;43.992;2022-09-30T08:40:20;101082.84;;;13.82;71.29
69247;BME280;56358;56.328;43.992;2022-09-30T08:42:41;100988.88;;;13.33;70.58
69247;BME280;56358;56.328;43.992;2022-09-30T08:44:47;101042.47;;;13.70;70.53
69247;BME280;56358;56.328;43.992;2022-09-30T08:53:35;101090.16;;;14.35;68.69
69247;BME280;56358;56.328;43.992;2022-09-30T08:55:42;101083.00;;;14.13;69.78
69247;BME280;56358;56.328;43.992;2022-09-30T08:57:44;101092.38;;;14.30;69.47
69247;BME280;56358;56.328;43.992;2022-09-30T08:59:47;101063.97;;;13.93;69.92
69247;BME280;56358;56.328;43.992;2022-09-30T09:01:50;101090.94;;;14.25;69.97
69247;BME280;56358;56.328;43.992;2022-09-30T09:03:53;101086.78;;;14.42;68.82
69247;BME280;56358;56.328;43.992;2022-09-30T09:08:03;101097.16;;;14.26;69.25
69247;BME280;56358;56.328;43.992;2022-09-30T09:10:29;101098.19;;;14.14;69.66
69247;BME280;56358;56.328;43.992;2022-09-30T09:12:54;101095.44;;;14.25;69.97
69247;BME280;56358;56.328;43.992;2022-09-30T09:15:11;101004.16;;;13.55;69.57
69247;BME280;56358;56.328;43.992;2022-09-30T09:19:37;101086.97;;;13.97;69.46
69247;BME280;56358;56.328;43.992;2022-09-30T09:21:55;101087.47;;;13.91;69.54
69247;BME280;56358;56.328;43.992;2022-09-30T09:23:59;101068.53;;;13.81;69.89
69247;BME280;56358;56.328;43.992;2022-09-30T09:26:02;100999.41;;;13.36;70.15
69247;BME280;56358;56.328;43.992;2022-09-30T09:28:14;101072.94;;;13.71;70.51
69247;BME280;56358;56.328;43.992;2022-09-30T09:30:20;101095.97;;;13.75;71.26
69247;BME280;56358;56.328;43.992;2022-09-30T09:32:23;101095.63;;;13.57;71.69
69247;BME280;56358;56.328;43.992;2022-09-30T09:34:30;101083.13;;;13.45;72.10
69247;BME280;56358;56.328;43.992;2022-09-30T09:44:15;101085.97;;;13.54;72.31
69247;BME280;56358;56.328;43.992;2022-09-30T09:46:23;101038.22;;;13.22;71.84
69247;BME280;56358;56.328;43.992;2022-09-30T09:48:25;101101.00;;;13.68;71.83
69247;BME280;56358;56.328;43.992;2022-09-30T09:53:19;101078.72;;;13.66;70.58
69247;BME280;56358;56.328;43.992;2022-09-30T09:55:21;101085.03;;;13.88;70.29
69247;BME280;56358;56.328;43.992;2022-09-30T09:57:24;101087.06;;;14.07;69.86
69247;BME280;56358;56.328;43.992;2022-09-30T09:59:27;101083.91;;;14.02;69.96
69247;BME280;56358;56.328;43.992;2022-09-30T10:01:29;101091.81;;;14.15;69.26
69247;BME280;56358;56.328;43.992;2022-09-30T10:03:33;101089.22;;;14.24;68.75
69247;BME280;56358;56.328;43.992;2022-09-30T10:05:35;101065.00;;;14.34;68.39
69247;BME280;56358;56.328;43.992;2022-09-30T10:07:39;101088.28;;;14.47;67.92
69247;BME280;56358;56.328;43.992;2022-09-30T10:09:41;101076.41;;;14.59;67.38
69247;BME280;56358;56.328;43.992;2022-09-30T10:11:42;101105.53;;;14.98;66.46
69247;BME280;56358;56.328;43.992;2022-09-30T10:13:44;101081.19;;;15.19;65.74
69247;BME280;56358;56.328;43.992;2022-09-30T10:15:45;101031.53;;;15.00;64.66
69247;BME280;56358;56.328;43.992;2022-09-30T10:17:52;101089.84;;;15.44;64.43
69247;BME280;56358;56.328;43.992;2022-09-30T10:19:59;101074.44;;;15.34;64.32
69247;BME280;56358;56.328;43.992;2022-09-30T10:24:30;101090.91;;;15.62;63.73
69247;BME280;56358;56.328;43.992;2022-09-30T10:26:42;101118.88;;;15.51;64.58
69247;BME280;56358;56.328;43.992;2022-09-30T10:30:53;101107.06;;;15.52;64.52
69247;BME280;56358;56.328;43.992;2022-09-30T10:32:55;101090.97;;;15.51;64.08
69247;BME280;56358;56.328;43.992;2022-09-30T10:35:03;101092.19;;;15.68;63.70
69247;BME280;56358;56.328;43.992;2022-09-30T10:37:23;101092.38;;;15.86;63.44
69247;BME280;56358;56.328;43.992;2022-09-30T10:39:30;101093.31;;;16.16;62.81
69247;BME280;56358;56.328;43.992;2022-09-30T10:41:35;101082.19;;;16.29;62.32
69247;BME280;56358;56.328;43.992;2022-09-30T10:43:42;101089.47;;;16.28;61.65
69247;BME280;56358;56.328;43.992;2022-09-30T10:45:44;101091.84;;;16.02;62.95
69247;BME280;56358;56.328;43.992;2022-09-30T10:47:48;101091.84;;;15.82;62.86
69247;BME280;56358;56.328;43.992;2022-09-30T10:50:06;101095.19;;;15.65;64.13
69247;BME280;56358;56.328;43.992;2022-09-30T10:52:24;101086.34;;;15.63;64.47
69247;BME280;56358;56.328;43.992;2022-09-30T10:56:41;101071.94;;;15.83;62.83
69247;BME280;56358;56.328;43.992;2022-09-30T10:58:47;101067.66;;;15.90;62.67
69247;BME280;56358;56.328;43.992;2022-09-30T11:01:00;101091.72;;;16.03;62.40
69247;BME280;56358;56.328;43.992;2022-09-30T11:03:26;101078.91;;;16.05;61.92
69247;BME280;56358;56.328;43.992;2022-09-30T11:07:52;101091.59;;;16.24;61.97
69247;BME280;56358;56.328;43.992;2022-09-30T11:10:12;101079.50;;;16.19;61.94
69247;BME280;56358;56.328;43.992;2022-09-30T11:15:12;101081.78;;;16.33;61.75
69247;BME280;56358;56.328;43.992;2022-09-30T11:19:48;101082.44;;;16.74;60.89
69247;BME280;56358;56.328;43.992;2022-09-30T11:22:03;101073.47;;;16.74;60.73
69247;BME280;56358;56.328;43.992;2022-09-30T11:26:49;101080.50;;;16.28;62.08
69247;BME280;56358;56.328;43.992;2022-09-30T11:31:21;101069.94;;;16.15;62.68
69247;BME280;56358;56.328;43.992;2022-09-30T11:33:49;101063.69;;;16.24;62.97
69247;BME280;56358;56.328;43.992;2022-09-30T11:38:11;101068.69;;;16.38;62.82
69247;BME280;56358;56.328;43.992;2022-09-30T11:42:45;101060.69;;;16.47;62.27
69247;BME280;56358;56.328;43.992;2022-09-30T11:44:57;101072.47;;;16.55;61.99
69247;BME280;56358;56.328;43.992;2022-09-30T11:47:14;101072.03;;;16.70;61.52
69247;BME280;56358;56.328;43.992;2022-09-30T11:49:36;101068.22;;;16.63;61.41
69247;BME280;56358;56.328;43.992;2022-09-30T11:58:19;101058.13;;;15.86;63.77
69247;BME280;56358;56.328;43.992;2022-09-30T12:00:22;100958.81;;;15.28;64.34
69247;BME280;56358;56.328;43.992;2022-09-30T12:02:43;101062.25;;;15.81;66.46
69247;BME280;56358;56.328;43.992;2022-09-30T12:04:46;101066.50;;;15.83;64.95
69247;BME280;56358;56.328;43.992;2022-09-30T12:06:53;101042.09;;;15.64;65.13
69247;BME280;56358;56.328;43.992;2022-09-30T12:09:00;101054.13;;;15.81;65.13
69247;BME280;56358;56.328;43.992;2022-09-30T12:11:12;101051.34;;;15.71;65.16
69247;BME280;56358;56.328;43.992;2022-09-30T12:13:21;101066.81;;;15.59;65.85
69247;BME280;56358;56.328;43.992;2022-09-30T12:15:24;101063.81;;;15.42;65.79
69247;BME280;56358;56.328;43.992;2022-09-30T12:19:40;101045.09;;;15.20;66.50
69247;BME280;56358;56.328;43.992;2022-09-30T12:22:11;101040.91;;;15.06;67.00
69247;BME280;56358;56.328;43.992;2022-09-30T12:24:28;101053.47;;;15.17;66.96
69247;BME280;56358;56.328;43.992;2022-09-30T12:26:29;101065.47;;;15.03;67.61
69247;BME280;56358;56.328;43.992;2022-09-30T12:31:18;100983.06;;;14.47;68.42
69247;BME280;56358;56.328;43.992;2022-09-30T12:34:01;101049.69;;;14.98;68.08
69247;BME280;56358;56.328;43.992;2022-09-30T12:40:44;101063.00;;;14.90;68.29
69247;BME280;56358;56.328;43.992;2022-09-30T12:49:20;101031.88;;;14.65;69.76